Jiggs, Nevada
Current Conditions -  °F | °C
As of 5:56 AM on Wednesday 28 Jan 2015 (Local Time) from KEKO Reporting Station
Overcast Overcast  
Wind Chill: 37°   Ceiling: 9000
Heat Index: 37°   Visibility: 10mi
Dew Point: 34°   Wind: 0mph
Humidity: 89%   Direction: NA
Pressure: 30.29"   Gusts: NA
Location:  40.5527°N, 115.577°W
Report Text: KEKO 281356Z AUTO 00000KT 10SM SCT060 OVC090 03/01 A3029 RMK AO2 SLP262 T00280011
Loading
Personal Weather Stations






























Interactive Weather Map New forecast layout! Learn more

10-Day Weather Forecast

Advertisements
Track Severe Weather on mobile